createdAt,value
2022-08-27T00:02:07.363Z,74529.09
2022-08-27T00:04:36.280Z,74520.94
2022-08-27T00:07:06.194Z,74508.72
2022-08-27T00:09:36.298Z,74504.63
2022-08-27T00:12:05.652Z,74504.63
2022-08-27T00:14:34.150Z,74504.63
2022-08-27T00:17:05.513Z,74502.59
2022-08-27T00:19:33.997Z,74504.63
2022-08-27T00:22:02.167Z,74500.56
2022-08-27T00:24:30.086Z,74500.56
2022-08-27T00:26:58.491Z,74488.34
2022-08-27T00:29:27.557Z,74488.34
2022-08-27T00:31:59.825Z,74476.13
2022-08-27T00:34:29.876Z,74472.03
2022-08-27T00:36:57.823Z,74463.88
2022-08-27T00:39:26.019Z,74467.97
2022-08-27T00:41:54.212Z,74467.97
2022-08-27T00:44:22.165Z,74467.97
2022-08-27T00:46:53.848Z,74463.88
2022-08-27T00:49:25.865Z,74459.81
2022-08-27T00:51:58.539Z,74461.84
2022-08-27T00:54:28.291Z,74463.88
2022-08-27T00:56:58.346Z,74463.88
2022-08-27T00:59:29.328Z,74472.03
2022-08-27T01:02:14.633Z,74472.03
2022-08-27T01:04:45.712Z,74476.13
2022-08-27T01:07:15.599Z,74480.19
2022-08-27T01:09:45.095Z,74480.19
2022-08-27T01:12:13.070Z,74478.16
2022-08-27T01:14:41.801Z,74484.25
2022-08-27T01:17:11.428Z,74488.34
2022-08-27T01:19:43.675Z,74496.50
2022-08-27T01:22:23.304Z,74500.56
2022-08-27T01:24:56.171Z,74512.78
2022-08-27T01:27:32.281Z,74504.63
2022-08-27T01:30:00.497Z,74502.59
2022-08-27T01:32:31.413Z,74504.63
2022-08-27T01:35:00.668Z,74502.59
2022-08-27T01:37:29.671Z,74508.72
2022-08-27T01:40:00.650Z,74504.63
2022-08-27T01:42:32.610Z,74506.69
2022-08-27T01:45:05.929Z,74510.75
2022-08-27T01:47:35.193Z,74504.63
2022-08-27T01:50:05.390Z,74510.75
2022-08-27T01:52:33.296Z,74508.72
2022-08-27T01:55:03.393Z,74504.63
2022-08-27T01:57:32.458Z,74508.72
2022-08-27T02:00:00.444Z,74508.72
2022-08-27T02:02:28.632Z,74504.63
2022-08-27T02:04:56.750Z,74504.63
2022-08-27T02:07:24.805Z,74506.69
2022-08-27T02:09:53.176Z,74508.72
2022-08-27T02:12:22.449Z,74514.84
2022-08-27T02:14:50.343Z,74516.88
2022-08-27T02:17:18.554Z,74516.88
2022-08-27T02:19:46.461Z,74520.94
2022-08-27T02:22:14.385Z,74527.06
2022-08-27T02:24:42.539Z,74516.88
2022-08-27T02:27:10.561Z,74520.94
2022-08-27T02:29:39.967Z,74518.91
2022-08-27T02:32:22.805Z,74512.78
2022-08-27T02:34:57.246Z,74510.75
2022-08-27T02:37:26.363Z,74516.88
2022-08-27T02:39:54.363Z,74516.88
2022-08-27T02:42:22.770Z,74514.84
2022-08-27T02:44:52.336Z,74512.78
2022-08-27T02:47:20.234Z,74516.88
2022-08-27T02:49:48.130Z,74510.75
2022-08-27T02:52:17.213Z,74510.75
2022-08-27T02:54:53.241Z,74514.84
2022-08-27T02:57:21.395Z,74510.75
2022-08-27T02:59:49.399Z,74518.91
2022-08-27T03:02:19.088Z,74518.91
2022-08-27T03:04:47.798Z,74525.03
2022-08-27T03:07:18.999Z,74520.94
2022-08-27T03:09:47.766Z,74525.03
2022-08-27T03:12:16.058Z,74533.16
2022-08-27T03:14:44.672Z,74533.16
2022-08-27T03:17:30.844Z,74537.25
2022-08-27T03:20:01.657Z,74541.31
2022-08-27T03:22:29.934Z,74537.25
2022-08-27T03:24:57.854Z,74539.28
2022-08-27T03:27:25.755Z,74541.31
2022-08-27T03:29:54.237Z,74533.16
2022-08-27T03:32:22.185Z,74537.25
2022-08-27T03:34:50.091Z,74535.22
2022-08-27T03:37:19.658Z,74535.22
2022-08-27T03:39:47.597Z,74525.03
2022-08-27T03:42:15.558Z,74525.03
2022-08-27T03:44:43.967Z,74522.97
2022-08-27T03:47:12.037Z,74525.03
2022-08-27T03:49:40.729Z,74533.16
2022-08-27T03:52:10.237Z,74520.94
2022-08-27T03:54:39.925Z,74533.16
2022-08-27T03:57:08.254Z,74537.25
2022-08-27T03:59:36.495Z,74539.28
2022-08-27T04:02:05.574Z,74541.31
2022-08-27T04:04:33.856Z,74543.34
2022-08-27T04:07:02.064Z,74545.41
2022-08-27T04:09:30.001Z,74549.47
2022-08-27T04:11:59.333Z,74553.56
2022-08-27T04:14:27.762Z,74557.63
2022-08-27T04:16:56.661Z,74563.75
2022-08-27T04:19:27.675Z,74569.84
2022-08-27T04:22:00.770Z,74567.81
2022-08-27T04:24:29.012Z,74575.97
2022-08-27T04:26:57.276Z,74578.00
2022-08-27T04:29:26.910Z,74582.09
2022-08-27T04:31:55.333Z,74580.03
2022-08-27T04:34:23.519Z,74582.09
2022-08-27T04:36:52.096Z,74586.16
2022-08-27T04:39:20.741Z,74584.13
2022-08-27T04:41:50.538Z,74586.16
2022-08-27T04:44:18.475Z,74588.19
2022-08-27T04:46:49.301Z,74590.22
2022-08-27T04:49:18.607Z,74590.22
2022-08-27T04:51:47.670Z,74588.19
2022-08-27T04:54:16.767Z,74592.28
2022-08-27T04:56:45.083Z,74590.22
2022-08-27T04:59:13.873Z,74594.31
2022-08-27T05:01:42.758Z,74590.22
2022-08-27T05:04:15.922Z,74594.31
2022-08-27T05:06:45.450Z,74596.34
2022-08-27T05:09:15.040Z,74598.38
2022-08-27T05:11:43.921Z,74594.31
2022-08-27T05:14:16.005Z,74596.34
2022-08-27T05:16:44.604Z,74584.13
2022-08-27T05:19:14.885Z,74590.22
2022-08-27T05:21:48.184Z,74582.09
2022-08-27T05:24:16.975Z,74582.09
2022-08-27T05:26:45.998Z,74580.03
2022-08-27T05:29:14.385Z,74588.19
2022-08-27T05:31:42.880Z,74578.00
2022-08-27T05:34:18.563Z,74578.00
2022-08-27T05:36:53.585Z,74567.81
2022-08-27T05:39:21.913Z,74561.69
2022-08-27T05:41:49.856Z,74557.63
2022-08-27T05:44:40.741Z,74555.59
2022-08-27T05:47:06.177Z,74549.47
2022-08-27T05:49:35.478Z,74545.41
2022-08-27T05:52:03.866Z,74549.47
2022-08-27T05:54:32.041Z,74533.16
2022-08-27T05:56:59.952Z,74520.94
2022-08-27T05:59:45.134Z,74522.97
2022-08-27T06:02:13.565Z,74518.91
2022-08-27T06:04:42.919Z,74520.94
2022-08-27T06:07:10.981Z,74512.78
2022-08-27T06:09:39.566Z,74512.78
2022-08-27T06:12:09.113Z,74516.88
2022-08-27T06:14:38.351Z,74516.88
2022-08-27T06:17:07.342Z,74520.94
2022-08-27T06:19:36.596Z,74516.88
2022-08-27T06:22:09.813Z,74512.78
2022-08-27T06:24:40.486Z,74510.75
2022-08-27T06:27:10.446Z,74510.75
2022-08-27T06:29:38.553Z,74516.88
2022-08-27T06:32:06.914Z,74520.94
2022-08-27T06:34:34.970Z,74512.78
2022-08-27T06:37:02.958Z,74516.88
2022-08-27T06:39:32.907Z,74512.78
2022-08-27T06:42:00.907Z,74514.84
2022-08-27T06:44:28.833Z,74504.63
2022-08-27T06:46:56.989Z,74498.53
2022-08-27T06:49:25.136Z,74492.41
2022-08-27T06:51:53.661Z,74482.22
2022-08-27T06:54:22.132Z,74476.13
2022-08-27T06:56:51.435Z,74467.97
2022-08-27T06:59:20.805Z,74463.88
2022-08-27T07:01:51.397Z,74443.50
2022-08-27T07:04:22.696Z,74427.22
2022-08-27T07:07:01.172Z,74410.91
2022-08-27T07:09:31.958Z,74414.97
2022-08-27T07:12:02.094Z,74412.94
2022-08-27T07:14:34.254Z,74400.72
2022-08-27T07:17:07.024Z,74378.28
2022-08-27T07:19:40.686Z,74398.69
2022-08-27T07:22:09.505Z,74398.69
2022-08-27T07:24:38.105Z,74390.53
2022-08-27T07:27:07.926Z,74374.22
2022-08-27T07:29:36.223Z,74366.06
2022-08-27T07:32:04.809Z,74370.16
2022-08-27T07:34:32.778Z,74351.81
2022-08-27T07:37:01.020Z,74349.78
2022-08-27T07:39:29.016Z,74359.97
2022-08-27T07:42:15.879Z,74347.72
2022-08-27T07:44:45.650Z,74349.78
2022-08-27T07:47:13.703Z,74329.38
2022-08-27T07:49:41.675Z,74317.16
2022-08-27T07:52:09.900Z,74317.16
2022-08-27T07:54:37.824Z,74309.00
2022-08-27T07:57:06.095Z,74313.09
2022-08-27T07:59:34.308Z,74313.09
2022-08-27T08:02:03.842Z,74309.00
2022-08-27T08:04:31.852Z,74311.06
2022-08-27T08:07:00.093Z,74313.09
2022-08-27T08:09:28.201Z,74306.97
2022-08-27T08:11:56.187Z,74300.88
2022-08-27T08:14:24.351Z,74280.50
2022-08-27T08:16:52.328Z,74249.91
2022-08-27T08:19:22.156Z,74245.84
2022-08-27T08:21:54.021Z,74251.97
2022-08-27T08:24:27.725Z,74247.88
2022-08-27T08:26:55.903Z,74243.81
2022-08-27T08:29:23.811Z,74243.81
2022-08-27T08:31:51.780Z,74227.50
2022-08-27T08:34:21.374Z,74231.59
2022-08-27T08:36:54.597Z,74231.59
2022-08-27T08:39:24.510Z,74231.59
2022-08-27T08:41:55.505Z,74239.72
2022-08-27T08:44:32.487Z,74207.13
2022-08-27T08:47:05.571Z,74182.69
2022-08-27T08:49:41.849Z,74150.06
2022-08-27T08:52:31.108Z,74117.47
2022-08-27T08:55:09.488Z,74090.97
2022-08-27T08:57:42.040Z,74062.47
2022-08-27T09:00:13.373Z,74060.41
2022-08-27T09:02:43.170Z,74050.22
2022-08-27T09:05:12.762Z,74048.19
2022-08-27T09:07:50.692Z,74023.75
2022-08-27T09:10:25.922Z,74033.94
2022-08-27T09:13:00.051Z,74064.50
2022-08-27T09:15:31.728Z,74064.50
2022-08-27T09:18:07.979Z,74080.78
2022-08-27T09:20:48.384Z,74080.78
2022-08-27T09:23:25.220Z,74105.25
2022-08-27T09:25:53.397Z,74123.59
2022-08-27T09:28:41.899Z,74117.47
2022-08-27T09:31:13.440Z,74105.25
2022-08-27T09:33:55.628Z,74066.53
2022-08-27T09:36:26.785Z,74035.97
2022-08-27T09:38:58.157Z,74019.66
2022-08-27T09:41:31.166Z,73991.16
2022-08-27T09:44:01.157Z,73985.03
2022-08-27T09:46:30.043Z,73985.03
2022-08-27T09:48:58.031Z,73970.78
2022-08-27T09:51:29.346Z,73958.53
2022-08-27T09:54:00.608Z,73925.94
2022-08-27T09:56:32.212Z,73881.13
2022-08-27T09:59:05.460Z,73885.19
2022-08-27T10:01:35.763Z,73868.91
2022-08-27T10:04:07.829Z,73852.59
2022-08-27T10:06:37.474Z,73875.00
2022-08-27T10:09:11.391Z,73917.78
2022-08-27T10:11:45.799Z,73950.41
2022-08-27T10:14:20.373Z,73927.97
2022-08-27T10:16:59.537Z,73883.16
2022-08-27T10:19:43.643Z,73893.34
2022-08-27T10:22:22.895Z,73868.91
2022-08-27T10:25:03.172Z,73893.34
2022-08-27T10:27:39.632Z,73893.34
2022-08-27T10:30:09.989Z,73844.44
2022-08-27T10:32:55.107Z,73799.63
2022-08-27T10:35:28.200Z,73777.22
2022-08-27T10:38:11.726Z,73777.22
2022-08-27T10:40:46.825Z,73762.94
2022-08-27T10:43:32.837Z,73718.13
2022-08-27T10:46:12.635Z,73689.59
2022-08-27T10:48:47.618Z,73722.19
2022-08-27T10:51:20.769Z,73726.28
2022-08-27T10:53:58.225Z,73742.56
2022-08-27T10:56:33.012Z,73738.50
2022-08-27T10:59:11.619Z,73724.25
2022-08-27T11:01:49.236Z,73718.13
2022-08-27T11:04:23.287Z,73685.53
2022-08-27T11:06:56.864Z,73652.94
2022-08-27T11:09:35.546Z,73685.53
2022-08-27T11:12:14.163Z,73693.69
2022-08-27T11:14:49.279Z,73675.34
2022-08-27T11:17:22.912Z,73644.78
2022-08-27T11:19:55.659Z,73624.41
2022-08-27T11:22:30.980Z,73583.66
2022-08-27T11:25:09.110Z,73597.91
2022-08-27T11:27:38.498Z,73595.88
2022-08-27T11:30:08.943Z,73604.03
2022-08-27T11:32:50.943Z,73638.66
2022-08-27T11:35:24.128Z,73648.84
2022-08-27T11:38:25.319Z,73628.47
2022-08-27T11:41:08.734Z,73583.66
2022-08-27T11:43:38.646Z,73583.66
2022-08-27T11:46:09.317Z,73595.88
2022-08-27T11:48:41.045Z,73628.47
2022-08-27T11:51:14.421Z,73628.47
2022-08-27T11:53:59.321Z,73604.03
2022-08-27T11:56:40.636Z,73604.03
2022-08-27T11:59:21.275Z,73567.34
2022-08-27T12:01:50.286Z,73573.47
2022-08-27T12:04:25.592Z,73587.72
2022-08-27T12:07:01.578Z,73591.81
2022-08-27T12:09:30.579Z,73610.16
2022-08-27T12:12:07.524Z,73669.22
2022-08-27T12:14:46.901Z,73669.22
2022-08-27T12:17:26.491Z,73614.22
2022-08-27T12:20:07.238Z,73571.44
2022-08-27T12:23:09.560Z,73540.88
2022-08-27T12:25:37.765Z,73536.81
2022-08-27T12:28:09.228Z,73551.06
2022-08-27T12:30:40.152Z,73571.44
2022-08-27T12:33:20.200Z,73555.13
2022-08-27T12:35:50.073Z,73506.25
2022-08-27T12:38:21.188Z,73473.66
2022-08-27T12:40:51.825Z,73457.34
2022-08-27T12:43:23.128Z,73477.72
2022-08-27T12:45:53.626Z,73498.09
2022-08-27T12:48:25.524Z,73538.84
2022-08-27T12:50:55.792Z,73544.94
2022-08-27T12:53:41.116Z,73532.72
2022-08-27T12:56:31.331Z,73530.69
2022-08-27T12:59:11.576Z,73508.28
2022-08-27T13:01:54.466Z,73481.78
2022-08-27T13:04:25.787Z,73449.19
2022-08-27T13:06:54.596Z,73424.75
2022-08-27T13:09:29.170Z,73449.19
2022-08-27T13:11:59.477Z,73465.50
2022-08-27T13:14:35.570Z,73479.75
2022-08-27T13:17:07.029Z,73494.03
2022-08-27T13:19:36.950Z,73514.41
2022-08-27T13:22:07.173Z,73518.47
2022-08-27T13:24:37.475Z,73518.47
2022-08-27T13:27:07.541Z,73528.66
2022-08-27T13:29:37.412Z,73530.69
2022-08-27T13:32:06.352Z,73494.03
2022-08-27T13:34:38.966Z,73494.03
2022-08-27T13:37:21.704Z,73500.13
2022-08-27T13:39:53.983Z,73510.31
2022-08-27T13:42:22.778Z,73530.69
2022-08-27T13:44:53.815Z,73518.47
2022-08-27T13:47:24.018Z,73502.16
2022-08-27T13:49:53.122Z,73518.47
2022-08-27T13:52:28.349Z,73502.16
2022-08-27T13:55:05.776Z,73502.16
2022-08-27T13:57:43.450Z,73489.94
2022-08-27T14:00:18.285Z,73467.53
2022-08-27T14:02:55.805Z,73463.47
2022-08-27T14:05:31.946Z,73453.28
2022-08-27T14:08:03.089Z,73496.06
2022-08-27T14:10:34.659Z,73489.94
2022-08-27T14:13:06.402Z,73500.13
2022-08-27T14:15:38.860Z,73504.22
2022-08-27T14:18:09.128Z,73496.06
2022-08-27T14:20:37.710Z,73496.06
2022-08-27T14:23:05.615Z,73514.41
2022-08-27T14:25:34.566Z,73524.56
2022-08-27T14:28:03.091Z,73536.81
2022-08-27T14:30:31.438Z,73544.94
2022-08-27T14:33:02.550Z,73563.28
2022-08-27T14:35:34.491Z,73559.22
2022-08-27T14:38:09.481Z,73553.09
2022-08-27T14:40:37.778Z,73530.69
2022-08-27T14:43:07.349Z,73518.47
2022-08-27T14:45:37.122Z,73547.00
2022-08-27T14:48:18.246Z,73567.34
2022-08-27T14:50:47.003Z,73559.22
2022-08-27T14:53:15.190Z,73559.22
2022-08-27T14:55:43.127Z,73549.03
2022-08-27T14:58:19.656Z,73563.28
2022-08-27T15:00:48.311Z,73575.50
2022-08-27T15:03:18.549Z,73591.81
2022-08-27T15:05:46.684Z,73573.47
2022-08-27T15:08:15.970Z,73571.44
2022-08-27T15:10:44.200Z,73593.84
2022-08-27T15:13:14.046Z,73593.84
2022-08-27T15:15:42.275Z,73599.97
2022-08-27T15:18:10.593Z,73604.03
2022-08-27T15:20:41.380Z,73612.19
2022-08-27T15:23:11.995Z,73606.06
2022-08-27T15:25:40.377Z,73602.00
2022-08-27T15:28:08.493Z,73599.97
2022-08-27T15:30:37.060Z,73597.91
2022-08-27T15:33:06.981Z,73595.88
2022-08-27T15:35:35.718Z,73604.03
2022-08-27T15:38:05.443Z,73589.78
2022-08-27T15:40:36.729Z,73599.97
2022-08-27T15:43:07.577Z,73595.88
2022-08-27T15:45:36.666Z,73616.25
2022-08-27T15:48:05.248Z,73618.28
2022-08-27T15:50:34.408Z,73628.47
2022-08-27T15:53:06.314Z,73632.56
2022-08-27T15:55:38.013Z,73620.34
2022-08-27T15:58:08.377Z,73628.47
2022-08-27T16:00:38.460Z,73628.47
2022-08-27T16:03:11.229Z,73636.63
2022-08-27T16:05:42.064Z,73634.59
2022-08-27T16:08:12.085Z,73644.78
2022-08-27T16:10:40.438Z,73650.88
2022-08-27T16:13:08.361Z,73652.94
2022-08-27T16:15:40.488Z,73648.84
2022-08-27T16:18:10.608Z,73648.84
2022-08-27T16:20:38.970Z,73644.78
2022-08-27T16:23:06.863Z,73644.78
2022-08-27T16:25:36.184Z,73648.84
2022-08-27T16:28:04.948Z,73652.94
2022-08-27T16:30:33.083Z,73659.03
2022-08-27T16:33:01.443Z,73667.19
2022-08-27T16:35:29.639Z,73673.31
2022-08-27T16:37:57.507Z,73681.44
2022-08-27T16:40:26.780Z,73693.69
2022-08-27T16:42:56.361Z,73697.75
2022-08-27T16:45:25.715Z,73701.81
2022-08-27T16:48:11.117Z,73714.03
2022-08-27T16:50:40.621Z,73726.28
2022-08-27T16:53:12.164Z,73742.56
2022-08-27T16:55:42.407Z,73754.78
2022-08-27T16:58:17.729Z,73775.16
2022-08-27T17:00:46.910Z,73787.41
2022-08-27T17:03:15.241Z,73803.69
2022-08-27T17:05:43.410Z,73811.84
2022-08-27T17:08:12.667Z,73820.00
2022-08-27T17:10:45.561Z,73832.22
2022-08-27T17:13:17.313Z,73840.38
2022-08-27T17:15:47.083Z,73852.59
2022-08-27T17:18:16.888Z,73868.91
2022-08-27T17:20:46.433Z,73879.06
2022-08-27T17:23:21.267Z,73889.28
2022-08-27T17:25:49.866Z,73895.38
2022-08-27T17:28:19.676Z,73907.59
2022-08-27T17:30:47.852Z,73919.84
2022-08-27T17:33:23.856Z,73925.94
2022-08-27T17:35:51.861Z,73942.25
2022-08-27T17:38:20.024Z,73946.31
2022-08-27T17:40:51.829Z,73956.50
2022-08-27T17:43:23.252Z,73960.59
2022-08-27T17:45:51.341Z,73970.78
2022-08-27T17:48:22.698Z,73985.03
2022-08-27T17:50:54.014Z,73991.16
2022-08-27T17:53:21.984Z,73999.28
2022-08-27T17:55:49.957Z,74007.44
2022-08-27T17:58:18.160Z,74021.72
2022-08-27T18:00:47.853Z,74031.91
2022-08-27T18:03:17.892Z,74035.97
2022-08-27T18:05:47.055Z,74040.03
2022-08-27T18:08:16.071Z,74044.13
2022-08-27T18:10:45.270Z,74056.34
2022-08-27T18:13:14.899Z,74060.41
2022-08-27T18:15:43.692Z,74066.53
2022-08-27T18:18:13.611Z,74068.56
2022-08-27T18:20:42.793Z,74072.66
2022-08-27T18:23:13.295Z,74076.72
2022-08-27T18:25:42.976Z,74076.72
2022-08-27T18:28:13.019Z,74080.78
2022-08-27T18:30:43.884Z,74080.78
2022-08-27T18:33:14.467Z,74084.88
2022-08-27T18:35:43.320Z,74082.84
2022-08-27T18:38:11.435Z,74086.91
2022-08-27T18:40:44.582Z,74088.94
2022-08-27T18:43:12.878Z,74093.03
2022-08-27T18:45:41.326Z,74093.03
2022-08-27T18:48:14.936Z,74109.31
2022-08-27T18:50:46.266Z,74115.44
2022-08-27T18:53:16.148Z,74123.59
2022-08-27T18:55:44.938Z,74125.63
2022-08-27T18:58:13.330Z,74129.69
2022-08-27T19:00:43.684Z,74137.84
2022-08-27T19:03:16.976Z,74146.00
2022-08-27T19:05:46.057Z,74154.16
2022-08-27T19:08:15.760Z,74162.31
2022-08-27T19:10:46.033Z,74166.38
2022-08-27T19:13:14.490Z,74174.53
2022-08-27T19:15:46.235Z,74182.69
2022-08-27T19:18:15.819Z,74190.81
2022-08-27T19:20:43.692Z,74201.00
2022-08-27T19:23:11.629Z,74205.09
2022-08-27T19:25:39.932Z,74207.13
2022-08-27T19:28:07.904Z,74207.13
2022-08-27T19:30:36.785Z,74219.34
2022-08-27T19:33:05.060Z,74221.38
2022-08-27T19:35:35.577Z,74223.44
2022-08-27T19:38:03.679Z,74229.53
2022-08-27T19:40:31.950Z,74233.63
2022-08-27T19:43:00.068Z,74243.81
2022-08-27T19:45:28.165Z,74241.78
2022-08-27T19:47:56.663Z,74251.97
2022-08-27T19:50:24.886Z,74251.97
2022-08-27T19:52:54.385Z,74260.09
2022-08-27T19:55:22.524Z,74270.28
2022-08-27T19:57:50.881Z,74272.34
2022-08-27T20:00:21.858Z,74280.50
2022-08-27T20:02:50.724Z,74284.56
2022-08-27T20:05:20.646Z,74292.72
2022-08-27T20:07:50.124Z,74292.72
2022-08-27T20:10:21.667Z,74296.78
2022-08-27T20:12:50.131Z,74296.78
2022-08-27T20:15:19.471Z,74300.88
2022-08-27T20:17:47.843Z,74309.00
2022-08-27T20:20:22.538Z,74302.91
2022-08-27T20:22:50.468Z,74311.06
2022-08-27T20:25:20.551Z,74313.09
2022-08-27T20:27:48.684Z,74315.13
2022-08-27T20:30:17.749Z,74317.16
2022-08-27T20:32:47.175Z,74317.16
2022-08-27T20:35:16.073Z,74321.25
2022-08-27T20:37:44.254Z,74329.38
2022-08-27T20:40:15.075Z,74335.50
2022-08-27T20:42:45.384Z,74337.53
2022-08-27T20:45:14.391Z,74345.69
2022-08-27T20:47:43.389Z,74351.81
2022-08-27T20:50:12.838Z,74362.00
2022-08-27T20:52:40.922Z,74366.06
2022-08-27T20:55:10.404Z,74370.16
2022-08-27T20:58:01.134Z,74370.16
2022-08-27T21:00:34.440Z,74386.44
2022-08-27T21:03:02.884Z,74390.53
2022-08-27T21:05:34.136Z,74390.53
2022-08-27T21:08:02.785Z,74402.75
2022-08-27T21:10:31.199Z,74419.06
2022-08-27T21:13:02.197Z,74437.41
2022-08-27T21:15:34.102Z,74431.28
2022-08-27T21:18:02.023Z,74435.34
2022-08-27T21:20:29.990Z,74433.31
2022-08-27T21:22:58.303Z,74439.44
2022-08-27T21:25:27.460Z,74443.50
2022-08-27T21:27:56.830Z,74445.53
2022-08-27T21:30:26.228Z,74443.50
2022-08-27T21:32:56.081Z,74451.66
2022-08-27T21:35:26.479Z,74451.66
2022-08-27T21:37:54.922Z,74447.59
2022-08-27T21:40:25.133Z,74449.63
2022-08-27T21:42:53.145Z,74451.66
2022-08-27T21:45:21.343Z,74447.59
2022-08-27T21:47:51.762Z,74447.59
2022-08-27T21:50:22.141Z,74437.41
2022-08-27T21:52:50.487Z,74451.66
2022-08-27T21:55:19.445Z,74451.66
2022-08-27T21:57:47.685Z,74451.66
2022-08-27T22:00:37.971Z,74461.84
2022-08-27T22:03:10.219Z,74465.91
2022-08-27T22:05:42.368Z,74467.97
2022-08-27T22:08:11.454Z,74476.13
2022-08-27T22:10:41.197Z,74476.13
2022-08-27T22:13:09.140Z,74488.34
2022-08-27T22:15:37.596Z,74498.53
2022-08-27T22:18:06.315Z,74504.63
2022-08-27T22:20:34.538Z,74512.78
2022-08-27T22:23:06.004Z,74520.94
2022-08-27T22:25:34.311Z,74512.78
2022-08-27T22:28:02.624Z,74516.88
2022-08-27T22:30:30.753Z,74508.72
2022-08-27T22:32:58.865Z,74514.84
2022-08-27T22:35:27.706Z,74508.72
2022-08-27T22:37:57.118Z,74498.53
2022-08-27T22:40:30.167Z,74498.53
2022-08-27T22:42:59.558Z,74494.44
2022-08-27T22:45:28.904Z,74504.63
2022-08-27T22:47:57.349Z,74504.63
2022-08-27T22:50:25.951Z,74500.56
2022-08-27T22:52:54.265Z,74500.56
2022-08-27T22:55:24.099Z,74504.63
2022-08-27T22:57:55.239Z,74498.53
2022-08-27T23:00:27.428Z,74496.50
2022-08-27T23:02:55.862Z,74496.50
2022-08-27T23:05:24.827Z,74498.53
2022-08-27T23:07:55.216Z,74504.63
2022-08-27T23:10:25.278Z,74512.78
2022-08-27T23:12:55.728Z,74527.06
2022-08-27T23:15:25.873Z,74537.25
2022-08-27T23:17:54.380Z,74541.31
2022-08-27T23:20:24.518Z,74541.31
2022-08-27T23:22:53.826Z,74545.41
2022-08-27T23:25:43.266Z,74545.41
2022-08-27T23:28:15.092Z,74541.31
2022-08-27T23:30:44.394Z,74545.41
2022-08-27T23:33:12.729Z,74547.44
2022-08-27T23:35:43.293Z,74553.56
2022-08-27T23:38:11.785Z,74551.50
2022-08-27T23:40:39.965Z,74557.63
2022-08-27T23:43:07.995Z,74561.69
2022-08-27T23:45:40.609Z,74557.63
2022-08-27T23:48:08.921Z,74557.63
2022-08-27T23:50:37.717Z,74561.69
2022-08-27T23:53:07.495Z,74553.56
2022-08-27T23:55:36.380Z,74557.63
2022-08-27T23:58:04.757Z,74565.78
